Time,TemperatureF,DewpointF,PressureIn,WindDirection,WindDirectionDegrees,WindSpeedMPH,WindSpeedGustMPH,Humidity,HourlyPrecipIn,Conditions,Clouds,dailyrainin,SoftwareType,DateUTC
2013-03-19 00:03:00,30.0,25.0,-100.00,East,85,2.0,8.0,81,0.47,,,-99.99,,2013-03-19 04:03:00,
2013-03-19 00:13:00,29.0,27.0,-100.00,East,90,1.0,6.0,89,0.47,,,-99.99,,2013-03-19 04:13:00,
2013-03-19 00:23:00,30.0,27.0,-100.00,NE,55,1.0,6.0,91,0.11,,,-99.99,,2013-03-19 04:23:00,
2013-03-19 00:34:00,30.0,27.0,-100.00,East,80,3.0,6.0,91,0.11,,,-99.99,,2013-03-19 04:34:00,
2013-03-19 00:43:00,30.0,27.0,-100.00,NE,55,3.0,6.0,91,0.33,,,-99.99,,2013-03-19 04:43:00,
2013-03-19 00:52:00,30.0,27.0,-100.00,NE,45,2.0,6.0,91,0.21,,,-99.99,,2013-03-19 04:52:00,
2013-03-19 01:02:00,30.0,28.0,-100.00,NE,55,4.0,8.0,92,0.21,,,-99.99,,2013-03-19 05:02:00,
2013-03-19 01:12:00,30.0,28.0,-100.00,NNE,15,2.0,8.0,92,0.40,,,-99.99,,2013-03-19 05:12:00,
2013-03-19 01:22:00,29.0,28.0,-100.00,East,95,3.0,8.0,92,0.23,,,-99.99,,2013-03-19 05:22:00,
2013-03-19 01:32:00,29.0,28.0,-100.00,East,85,3.0,9.0,92,0.58,,,-99.99,,2013-03-19 05:32:00,
2013-03-19 01:43:00,30.0,28.0,-100.00,ENE,75,4.0,7.0,93,0.14,,,-99.99,,2013-03-19 05:43:00,
2013-03-19 01:52:00,30.0,28.0,-100.00,ENE,75,4.0,7.0,93,0.14,,,-99.99,,2013-03-19 05:52:00,
2013-03-19 02:02:00,30.0,28.0,-100.00,East,100,1.0,7.0,93,0.44,,,-99.99,,2013-03-19 06:02:00,
2013-03-19 02:12:00,30.0,28.0,-100.00,East,90,1.0,7.0,93,0.55,,,-99.99,,2013-03-19 06:12:00,
2013-03-19 02:22:00,30.0,28.0,-100.00,NNW,345,2.0,5.0,93,0.28,,,-99.99,,2013-03-19 06:22:00,
2013-03-19 02:32:00,30.0,28.0,-100.00,East,80,0.0,4.0,93,0.33,,,-99.99,,2013-03-19 06:32:00,
2013-03-19 02:42:00,30.0,28.0,-100.00,NE,55,1.0,3.0,94,0.71,,,-99.99,,2013-03-19 06:42:00,
2013-03-19 02:52:00,30.0,28.0,-100.00,East,80,2.0,4.0,94,0.58,,,-99.99,,2013-03-19 06:52:00,
2013-03-19 03:02:00,30.0,28.0,-100.00,West,280,1.0,3.0,94,0.72,,,-99.99,,2013-03-19 07:02:00,
2013-03-19 03:12:00,30.0,28.0,-100.00,NE,45,1.0,4.0,94,0.59,,,-99.99,,2013-03-19 07:12:00,
2013-03-19 03:22:00,30.0,29.0,-100.00,NNW,345,1.0,3.0,95,0.88,,,-99.99,,2013-03-19 07:22:00,
2013-03-19 03:42:00,30.0,29.0,-100.00,East,80,2.0,4.0,95,0.45,,,-99.99,,2013-03-19 07:42:00,
2013-03-19 03:52:00,30.0,28.0,-100.00,ENE,65,4.0,6.0,95,0.44,,,-99.99,,2013-03-19 07:52:00,
2013-03-19 04:03:00,30.0,28.0,-100.00,East,90,1.0,6.0,95,0.27,,,-99.99,,2013-03-19 08:03:00,
2013-03-19 04:12:00,30.0,29.0,-100.00,NNE,15,2.0,6.0,95,0.40,,,-99.99,,2013-03-19 08:12:00,
2013-03-19 04:22:00,30.0,28.0,-100.00,East,90,1.0,6.0,95,0.72,,,-99.99,,2013-03-19 08:22:00,
2013-03-19 04:32:00,30.0,29.0,-100.00,North,-999,-999.0,-999.0,95,-99.99,,,-99.99,,2013-03-19 08:32:00,
2013-03-19 04:42:00,30.0,29.0,-100.00,East,95,1.0,2.0,95,0.58,,,-99.99,,2013-03-19 08:42:00,
2013-03-19 04:52:00,30.0,29.0,-100.00,NNW,345,1.0,4.0,96,1.28,,,-99.99,,2013-03-19 08:52:00,
2013-03-19 05:02:00,30.0,29.0,-100.00,ENE,70,1.0,4.0,96,0.69,,,-99.99,,2013-03-19 09:02:00,
2013-03-19 05:12:00,30.0,29.0,-100.00,North,0,3.0,6.0,96,0.34,,,-99.99,,2013-03-19 09:12:00,
2013-03-19 05:22:00,30.0,29.0,-100.00,East,80,1.0,7.0,96,0.37,,,-99.99,,2013-03-19 09:22:00,
2013-03-19 05:33:00,30.0,29.0,-100.00,ENE,70,2.0,5.0,96,0.30,,,-99.99,,2013-03-19 09:33:00,
2013-03-19 05:43:00,30.0,29.0,-100.00,North,5,2.0,11.0,96,0.47,,,-99.99,,2013-03-19 09:43:00,
2013-03-19 05:52:00,30.0,29.0,-100.00,East,80,1.0,11.0,96,0.25,,,-99.99,,2013-03-19 09:52:00,
2013-03-19 06:03:00,30.0,29.0,-100.00,ENE,65,2.0,7.0,97,0.13,,,-99.99,,2013-03-19 10:03:00,
2013-03-19 06:13:00,30.0,30.0,-100.00,North,355,1.0,6.0,97,0.20,,,-99.99,,2013-03-19 10:13:00,
2013-03-19 06:23:00,30.0,30.0,-100.00,North,10,0.0,6.0,97,0.18,,,-99.99,,2013-03-19 10:23:00,
2013-03-19 06:32:00,30.0,30.0,-100.00,East,90,1.0,9.0,97,0.13,,,-99.99,,2013-03-19 10:32:00,
2013-03-19 06:42:00,31.0,30.0,-100.00,North,350,1.0,4.0,96,0.11,,,-99.99,,2013-03-19 10:42:00,
2013-03-19 06:52:00,31.0,30.0,-100.00,ENE,60,2.0,6.0,96,0.04,,,-99.99,,2013-03-19 10:52:00,
2013-03-19 07:02:00,31.0,30.0,-100.00,South,170,1.0,6.0,96,0.04,,,-99.99,,2013-03-19 11:02:00,
2013-03-19 07:12:00,31.0,29.0,-100.00,East,85,4.0,6.0,96,0.08,,,-99.99,,2013-03-19 11:12:00,
2013-03-19 07:22:00,31.0,30.0,-100.00,East,85,1.0,4.0,96,0.13,,,-99.99,,2013-03-19 11:22:00,
2013-03-19 07:33:00,31.0,30.0,-100.00,East,90,2.0,6.0,96,0.13,,,-99.99,,2013-03-19 11:33:00,
2013-03-19 07:43:00,31.0,29.0,-100.00,East,90,1.0,5.0,96,0.11,,,-99.99,,2013-03-19 11:43:00,
2013-03-19 08:02:00,31.0,30.0,-100.00,North,5,4.0,7.0,95,0.07,,,-99.99,,2013-03-19 12:02:00,
2013-03-19 08:12:00,31.0,30.0,-100.00,East,85,2.0,6.0,95,0.04,,,-99.99,,2013-03-19 12:12:00,
2013-03-19 08:22:00,31.0,30.0,-100.00,NE,55,4.0,7.0,95,0.06,,,-99.99,,2013-03-19 12:22:00,
2013-03-19 08:33:00,31.0,30.0,-100.00,ENE,75,2.0,6.0,95,0.03,,,-99.99,,2013-03-19 12:33:00,
2013-03-19 08:42:00,32.0,30.0,-100.00,North,10,1.0,4.0,95,0.03,,,-99.99,,2013-03-19 12:42:00,
2013-03-19 08:52:00,31.0,30.0,-100.00,NNW,345,2.0,4.0,94,0.04,,,-99.99,,2013-03-19 12:52:00,
2013-03-19 09:02:00,32.0,30.0,-100.00,North,0,2.0,5.0,94,0.06,,,-99.99,,2013-03-19 13:02:00,
2013-03-19 09:12:00,32.0,30.0,-100.00,East,90,1.0,11.0,94,0.04,,,-99.99,,2013-03-19 13:12:00,
2013-03-19 09:22:00,32.0,30.0,-100.00,North,0,2.0,5.0,93,0.04,,,-99.99,,2013-03-19 13:22:00,
2013-03-19 09:33:00,32.0,30.0,-100.00,NNE,25,4.0,9.0,92,0.08,,,-99.99,,2013-03-19 13:33:00,
2013-03-19 09:42:00,32.0,30.0,-100.00,North,0,4.0,9.0,92,0.07,,,-99.99,,2013-03-19 13:42:00,
2013-03-19 09:52:00,33.0,30.0,-100.00,North,5,2.0,9.0,91,0.07,,,-99.99,,2013-03-19 13:52:00,
2013-03-19 10:02:00,33.0,30.0,-100.00,North,5,4.0,7.0,90,0.13,,,-99.99,,2013-03-19 14:02:00,
2013-03-19 10:12:00,33.0,30.0,-100.00,North,355,4.0,10.0,90,0.06,,,-99.99,,2013-03-19 14:12:00,
2013-03-19 10:22:00,33.0,30.0,-100.00,North,0,4.0,10.0,90,0.07,,,-99.99,,2013-03-19 14:22:00,
2013-03-19 10:32:00,33.0,30.0,-100.00,East,90,2.0,9.0,89,0.06,,,-99.99,,2013-03-19 14:32:00,
2013-03-19 10:42:00,33.0,30.0,-100.00,East,100,5.0,9.0,89,0.06,,,-99.99,,2013-03-19 14:42:00,
2013-03-19 10:52:00,33.0,30.0,-100.00,NNW,340,2.0,7.0,89,0.10,,,-99.99,,2013-03-19 14:52:00,
2013-03-19 11:02:00,33.0,30.0,-100.00,North,5,4.0,9.0,89,0.04,,,-99.99,,2013-03-19 15:02:00,
2013-03-19 11:12:00,33.0,30.0,-100.00,North,-999,-999.0,-999.0,88,0.07,,,-99.99,,2013-03-19 15:12:00,
2013-03-19 11:22:00,33.0,30.0,-100.00,North,0,2.0,7.0,88,0.06,,,-99.99,,2013-03-19 15:22:00,
2013-03-19 11:34:00,34.0,30.0,-100.00,ENE,60,4.0,9.0,88,0.07,,,-99.99,,2013-03-19 15:34:00,
2013-03-19 11:43:00,34.0,31.0,-100.00,WSW,255,2.0,9.0,89,0.40,,,-99.99,,2013-03-19 15:43:00,
2013-03-19 12:04:00,33.0,31.0,-100.00,North,10,5.0,9.0,90,0.10,,,-99.99,,2013-03-19 16:04:00,
2013-03-19 12:13:00,34.0,31.0,-100.00,NNW,340,2.0,8.0,90,0.13,,,-99.99,,2013-03-19 16:13:00,
2013-03-19 12:24:00,34.0,31.0,-100.00,North,0,1.0,7.0,89,0.08,,,-99.99,,2013-03-19 16:24:00,
2013-03-19 12:34:00,34.0,31.0,-100.00,North,355,2.0,10.0,88,0.03,,,-99.99,,2013-03-19 16:34:00,
2013-03-19 12:44:00,34.0,31.0,-100.00,NNW,330,5.0,11.0,87,0.04,,,-99.99,,2013-03-19 16:44:00,
2013-03-19 12:54:00,34.0,31.0,-100.00,ENE,70,4.0,8.0,86,0.01,,,-99.99,,2013-03-19 16:54:00,
2013-03-19 13:03:00,34.0,30.0,-100.00,NNW,345,4.0,13.0,86,0.03,,,-99.99,,2013-03-19 17:03:00,
2013-03-19 13:13:00,34.0,31.0,-100.00,NNW,330,3.0,6.0,87,0.03,,,-99.99,,2013-03-19 17:13:00,
2013-03-19 13:23:00,34.0,31.0,-100.00,North,10,3.0,8.0,88,0.00,,,-99.99,,2013-03-19 17:23:00,
2013-03-19 13:34:00,34.0,30.0,-100.00,North,350,2.0,11.0,86,0.01,,,-99.99,,2013-03-19 17:34:00,
2013-03-19 13:44:00,34.0,30.0,-100.00,North,0,2.0,9.0,84,0.00,,,-99.99,,2013-03-19 17:44:00,
2013-03-19 13:53:00,34.0,30.0,-100.00,NNE,20,1.0,6.0,85,0.01,,,-99.99,,2013-03-19 17:53:00,
2013-03-19 14:03:00,34.0,30.0,-100.00,NNE,25,2.0,10.0,86,0.01,,,-99.99,,2013-03-19 18:03:00,
2013-03-19 14:13:00,34.0,31.0,-100.00,WNW,290,1.0,12.0,87,0.00,,,-99.99,,2013-03-19 18:13:00,
2013-03-19 14:23:00,34.0,31.0,-100.00,West,275,2.0,4.0,88,0.03,,,-99.99,,2013-03-19 18:23:00,
2013-03-19 14:34:00,34.0,31.0,-100.00,North,-999,-999.0,-999.0,90,0.01,,,-99.99,,2013-03-19 18:34:00,
2013-03-19 14:43:00,34.0,32.0,-100.00,WSW,255,1.0,4.0,92,0.04,,,-99.99,,2013-03-19 18:43:00,
2013-03-19 14:53:00,34.0,32.0,-100.00,WSW,255,2.0,4.0,93,0.20,,,-99.99,,2013-03-19 18:53:00,
2013-03-19 15:02:00,34.0,32.0,-100.00,North,0,3.0,6.0,94,0.37,,,-99.99,,2013-03-19 19:02:00,
2013-03-19 15:12:00,33.0,32.0,-100.00,SW,230,3.0,9.0,95,0.08,,,-99.99,,2013-03-19 19:12:00,
2013-03-19 15:22:00,34.0,33.0,-100.00,North,5,1.0,4.0,95,0.40,,,-99.99,,2013-03-19 19:22:00,
2013-03-19 15:33:00,34.0,33.0,-100.00,North,0,1.0,6.0,95,1.36,,,-99.99,,2013-03-19 19:33:00,
2013-03-19 15:42:00,33.0,32.0,-100.00,NNE,30,3.0,9.0,95,3.61,,,-99.99,,2013-03-19 19:42:00,
2013-03-19 15:52:00,33.0,32.0,-100.00,NNW,345,3.0,7.0,96,2.07,,,-99.99,,2013-03-19 19:52:00,
2013-03-19 16:03:00,33.0,32.0,-100.00,North,5,7.0,11.0,97,1.25,,,-99.99,,2013-03-19 20:03:00,
2013-03-19 16:12:00,33.0,32.0,-100.00,NNW,330,4.0,12.0,97,1.22,,,-99.99,,2013-03-19 20:12:00,
2013-03-19 16:22:00,33.0,32.0,-100.00,North,0,4.0,9.0,98,0.79,,,-99.99,,2013-03-19 20:22:00,
2013-03-19 16:32:00,32.0,32.0,-100.00,WNW,290,4.0,9.0,98,0.62,,,-99.99,,2013-03-19 20:32:00,
2013-03-19 16:43:00,32.0,32.0,-100.00,NNW,335,4.0,9.0,98,0.52,,,-99.99,,2013-03-19 20:43:00,
2013-03-19 16:52:00,33.0,33.0,-100.00,NNW,340,2.0,6.0,99,0.25,,,-99.99,,2013-03-19 20:52:00,
2013-03-19 17:02:00,33.0,32.0,-100.00,NE,50,1.0,7.0,99,0.10,,,-99.99,,2013-03-19 21:02:00,
2013-03-19 17:12:00,32.0,32.0,-100.00,WNW,290,6.0,9.0,99,0.17,,,-99.99,,2013-03-19 21:12:00,
2013-03-19 17:23:00,32.0,31.0,-100.00,NNW,335,2.0,7.0,99,0.33,,,-99.99,,2013-03-19 21:23:00,
2013-03-19 17:34:00,31.0,31.0,-100.00,NW,305,1.0,6.0,99,0.27,,,-99.99,,2013-03-19 21:34:00,
2013-03-19 17:43:00,31.0,31.0,-100.00,NW,305,4.0,7.0,99,0.06,,,-99.99,,2013-03-19 21:43:00,
2013-03-19 17:52:00,30.0,30.0,-100.00,NNW,335,1.0,7.0,99,0.01,,,-99.99,,2013-03-19 21:52:00,
2013-03-19 18:03:00,30.0,30.0,-100.00,North,0,2.0,4.0,99,0.01,,,-99.99,,2013-03-19 22:03:00,
2013-03-19 18:13:00,30.0,30.0,-100.00,NNW,330,2.0,6.0,99,0.00,,,-99.99,,2013-03-19 22:13:00,
2013-03-19 18:23:00,30.0,30.0,-100.00,WNW,300,4.0,8.0,99,0.00,,,-99.99,,2013-03-19 22:23:00,
2013-03-19 18:33:00,30.0,30.0,-100.00,NW,305,3.0,7.0,99,0.04,,,-99.99,,2013-03-19 22:33:00,
2013-03-19 18:43:00,30.0,30.0,-100.00,NW,305,2.0,9.0,99,0.03,,,-99.99,,2013-03-19 22:43:00,
2013-03-19 18:53:00,29.0,29.0,-100.00,WNW,300,4.0,7.0,99,0.04,,,-99.99,,2013-03-19 22:53:00,
2013-03-19 19:03:00,29.0,29.0,-100.00,NNW,330,2.0,7.0,99,0.08,,,-99.99,,2013-03-19 23:03:00,
2013-03-19 19:12:00,29.0,29.0,-100.00,NW,325,1.0,6.0,99,0.07,,,-99.99,,2013-03-19 23:12:00,
2013-03-19 19:22:00,29.0,29.0,-100.00,WNW,290,2.0,6.0,99,0.24,,,-99.99,,2013-03-19 23:22:00,
2013-03-19 19:32:00,29.0,29.0,-100.00,WNW,295,3.0,7.0,99,0.23,,,-99.99,,2013-03-19 23:32:00,
2013-03-19 19:42:00,29.0,29.0,-100.00,WNW,285,3.0,9.0,99,0.35,,,-99.99,,2013-03-19 23:42:00,
2013-03-19 19:52:00,29.0,28.0,-100.00,West,280,1.0,6.0,99,0.13,,,-99.99,,2013-03-19 23:52:00,
2013-03-19 20:03:00,28.0,28.0,-100.00,West,265,2.0,6.0,99,0.16,,,-99.99,,2013-03-20 00:03:00,
2013-03-19 20:13:00,28.0,28.0,-100.00,WNW,295,4.0,9.0,99,0.17,,,-99.99,,2013-03-20 00:13:00,
2013-03-19 20:22:00,28.0,28.0,-100.00,WNW,300,3.0,10.0,99,0.23,,,-99.99,,2013-03-20 00:22:00,
2013-03-19 20:33:00,28.0,27.0,-100.00,NW,305,3.0,7.0,99,0.23,,,-99.99,,2013-03-20 00:33:00,
2013-03-19 20:42:00,27.0,27.0,-100.00,NW,315,6.0,12.0,98,0.13,,,-99.99,,2013-03-20 00:42:00,
2013-03-19 20:52:00,27.0,27.0,-100.00,NNW,345,3.0,9.0,98,0.13,,,-99.99,,2013-03-20 00:52:00,
2013-03-19 21:03:00,27.0,27.0,-100.00,NNW,345,5.0,10.0,98,0.08,,,-99.99,,2013-03-20 01:03:00,
2013-03-19 21:12:00,27.0,26.0,-100.00,WNW,285,3.0,14.0,98,0.04,,,-99.99,,2013-03-20 01:12:00,
2013-03-19 21:22:00,27.0,26.0,-100.00,WNW,295,2.0,8.0,98,0.16,,,-99.99,,2013-03-20 01:22:00,
2013-03-19 21:32:00,27.0,27.0,-100.00,West,260,1.0,7.0,98,0.17,,,-99.99,,2013-03-20 01:32:00,
2013-03-19 21:42:00,27.0,26.0,-100.00,WNW,290,4.0,7.0,97,0.11,,,-99.99,,2013-03-20 01:42:00,
2013-03-19 21:52:00,27.0,26.0,-100.00,NW,320,2.0,6.0,97,0.06,,,-99.99,,2013-03-20 01:52:00,
2013-03-19 22:02:00,27.0,26.0,-100.00,NW,305,2.0,9.0,97,0.06,,,-99.99,,2013-03-20 02:02:00,
2013-03-19 22:12:00,26.0,26.0,-100.00,WNW,295,2.0,7.0,97,0.07,,,-99.99,,2013-03-20 02:12:00,
2013-03-19 22:22:00,26.0,26.0,-100.00,WNW,290,2.0,7.0,97,0.10,,,-99.99,,2013-03-20 02:22:00,
2013-03-19 22:32:00,26.0,26.0,-100.00,West,265,1.0,7.0,96,0.14,,,-99.99,,2013-03-20 02:32:00,
2013-03-19 22:42:00,26.0,26.0,-100.00,West,270,2.0,7.0,96,0.20,,,-99.99,,2013-03-20 02:42:00,
2013-03-19 22:52:00,26.0,25.0,-100.00,NW,320,2.0,6.0,96,0.16,,,-99.99,,2013-03-20 02:52:00,
2013-03-19 23:02:00,26.0,25.0,-100.00,North,-999,-999.0,-999.0,96,0.11,,,-99.99,,2013-03-20 03:02:00,
2013-03-19 23:12:00,26.0,25.0,-100.00,WNW,300,2.0,5.0,96,0.33,,,-99.99,,2013-03-20 03:12:00,
2013-03-19 23:22:00,26.0,25.0,-100.00,West,270,2.0,5.0,96,0.68,,,-99.99,,2013-03-20 03:22:00,
2013-03-19 23:34:00,26.0,25.0,-100.00,NW,325,1.0,4.0,96,1.11,,,-99.99,,2013-03-20 03:34:00,
2013-03-19 23:42:00,26.0,25.0,-100.00,WNW,290,1.0,4.0,96,1.20,,,-99.99,,2013-03-20 03:42:00,
2013-03-19 23:53:00,26.0,25.0,-100.00,NNW,330,1.0,6.0,96,0.31,,,-99.99,,2013-03-20 03:53:00,